Ibra, Oman
Current Conditions -  °F | °C
As of 10:50 AM on Saturday 25 Oct 2014 (Local Time) from OOMS Reporting Station
Clear Clear  
Wind Chill: 32°   Ceiling: Unl
Heat Index: 38°   Visibility: 6mi
Dew Point: 24°   Wind: 9mph
Humidity: 62%   Direction: 20°NNE
Pressure: 29.88"   Gusts: NA
Location:  22.72°N, 58.53°E
Report Text: OOMS 250650Z 02008KT 350V060 CAVOK 32/24 Q1012 NOSIG
Loading
Personal Weather Stations






























Interactive Weather Map
Tropical Storm Tracking
New forecast layout! Learn more

10-Day Weather Forecast

Advertisements
Track Severe Weather on mobile